Kevin Rodriguez

Recruteur - Young Boys
20 Janv 2028
Jeudi
Processus

Personnalité

Adaptabilité (14) Ambition (5) Controverse (6) Loyauté (12) Pression (1) Professionnalisme (15) Sportivité (9) Tempérament (11)

Profil

Style d'entraînement Démocratique
Diplôme Continental Pro
Détermination 9
Gestion des joueurs 12
Motivation 14
Discipline 11
Satisfaction professionnelle
100%
Fatigue
0%
Rôle Recruteur
Salaire 68.4K p/s
Contrat 14.03.2029

Performance

Comportement Bon
Efficacité de l'entraînement
52%
Développement des joueurs
25%
Prévention des blessures
55%
Mise en place tactique
70%

Événements récents

En formation continue maintenant
A participé à une réunion de recrutement maintenant
A participé à une réunion de recrutement maintenant
A recommandé une cible de transfert maintenant
A recommandé une cible de transfert maintenant
En formation continue maintenant
En formation continue 7j
En formation continue 7j

Suivi en cours

126
Joueur Club Statut Capacité Confiance Observé Dernière observation Dernier vote
Pedro Porro Tottenham Actif 155 / 157 40% 3 18.01.2028 -
Neco Williams Nottingham Forest Actif 147 / 151 40% 1 18.01.2028 -
Amadou Onana Aston Villa Actif 160 / 152 40% 1 18.01.2028 -
Igor Jesus Newcastle United Actif 144 / 142 40% 1 31.12.2027 -
Brennan Johnson Stoke City Actif 151 / 149 40% 1 31.12.2027 -
Dango Ouattara Brentford Actif 151 / 151 40% 1 31.12.2027 -
Nikola Vlašić Torino Actif 154 / 156 40% 1 17.08.2027 -
Agustín Ruberto River Plate Actif 113 / 129 40% 1 17.08.2027 -
Dušan Vlahović Juventus Actif 169 / 156 40% 1 17.08.2027 -
Umeh Emmanuel Zurich Actif 118 / 127 76% 1 02.06.2027 Approuver
Franck Surdez Sion Actif 113 / 111 76% 1 01.06.2027 Approuver
Kwadwo Baah Watford Actif 128 / 129 40% 4 30.05.2027 -
Callum O'Hare Sheffield United Actif 133 / 122 40% 2 30.05.2027 -
Finn Azaz Southampton Actif 129 / 130 40% 2 30.05.2027 -
Derry Murkin Derby County Actif 127 / 128 40% 6 28.05.2027 -
Ryan Sessegnon Fulham Actif 143 / 139 40% 5 28.05.2027 -
Dara O'Shea Ipswich Town Actif 139 / 141 40% 5 28.05.2027 -
Mohamed-Ali Cho Hull City Actif 132 / 134 40% 1 28.05.2027 -
Callum Doyle Wrexham Actif 136 / 138 40% 6 26.05.2027 -
Quinten Timber Crystal Palace Actif 147 / 152 40% 5 26.05.2027 -
Florentino Luís Ipswich Town Actif 138 / 140 40% 4 25.05.2027 -
Adam Wharton Crystal Palace Actif 149 / 160 40% 5 25.05.2027 -
Welington Southampton Actif 136 / 135 40% 7 25.05.2027 -
Tomáš Rigo Stoke City Actif 132 / 130 40% 1 24.05.2027 -
Bosun Lawal Stoke City Actif 123 / 123 40% 2 23.05.2027 -
Benjamin White Arsenal Actif 160 / 155 40% 1 22.05.2027 -
Kristoffer Lund Birmingham Actif 130 / 130 40% 2 21.05.2027 -
Max Bird Birmingham Actif 130 / 133 40% 4 21.05.2027 -
Soungoutou Magassa West Ham United Actif 131 / 145 40% 2 20.05.2027 -
Kyle Walker-Peters West Ham United Actif 138 / 133 40% 3 20.05.2027 -
Edoardo Bove Watford Actif 129 / 124 40% 1 19.05.2027 -
Tom Fellows Southampton Actif 134 / 127 40% 5 17.05.2027 -
Amine Adli Bournemouth Actif 142 / 145 40% 2 17.05.2027 -
Morgan Whittaker Middlesbrough Actif 138 / 131 40% 1 17.05.2027 -
Borja Sainz Fiorentina Actif 145 / 139 40% 3 16.05.2027 -
Yehor Yarmoliuk Brentford Actif 150 / 157 40% 5 15.05.2027 -
Xaver Schlager Nottingham Forest Actif 156 / 147 40% 4 15.05.2027 -
Japhet Tanganga Sheffield United Actif 128 / 136 40% 1 15.05.2027 -
Harry Clarke Preston Actif 131 / 128 40% 5 13.05.2027 -
Nordi Mukiele Sunderland Actif 145 / 147 40% 6 13.05.2027 -
Jack McGlynn Stoke City Actif 132 / 137 40% 3 13.05.2027 -
Shea Charles Southampton Actif 133 / 139 40% 2 11.05.2027 -
Ethan Williams Peterborough United Actif 111 / 119 40% 1 05.05.2027 -
Anton Stach Leeds United Actif 144 / 147 40% 7 04.05.2027 -
Adrien Truffert Bournemouth Actif 155 / 149 40% 6 03.05.2027 -
Marcus Edwards Burnley Actif 138 / 143 40% 3 03.05.2027 -
Riley McGree Middlesbrough Actif 130 / 133 40% 4 02.05.2027 -
Léo Scienza Southampton Actif 136 / 135 40% 6 01.05.2027 -
Luís Henrique Inter Actif 147 / 135 40% 2 29.04.2027 -
Igor Burnley Actif 140 / 137 40% 5 27.04.2027 -
Saša Lukić Ipswich Town Actif 142 / 133 40% 3 25.04.2027 -
Paik Seung-Ho Birmingham Actif 127 / 122 40% 1 25.04.2027 -
Kasey McAteer Ipswich Town Actif 133 / 130 40% 2 20.04.2027 -
Juanlu Bournemouth Actif 149 / 142 40% 1 20.04.2027 -
Callum Brittain Middlesbrough Actif 126 / 123 40% 2 17.04.2027 -
James Garner Everton Actif 150 / 142 40% 3 15.04.2027 -
David Brooks Bournemouth Actif 144 / 143 40% 4 15.04.2027 -
Ethan Galbraith Swansea City Actif 131 / 130 40% 4 12.04.2027 -
Jacques Ekomié Wrexham Actif 132 / 137 40% 1 10.04.2027 -
Ousmane Diomande Nottingham Forest Actif 153 / 151 40% 3 08.04.2027 -
Sorba Thomas Stoke City Actif 135 / 123 40% 1 08.04.2027 -
Cyriaque Irié VfL Wolfsburg Actif 117 / 127 40% 1 08.04.2027 -
Milan van Ewijk Mansfield Town Actif 135 / 135 40% 3 05.04.2027 -
Harry Wilson Leeds United Actif 149 / 136 40% 4 03.04.2027 -
Noah Sadiki Sunderland Actif 139 / 146 40% 1 03.04.2027 -
Alessandro Buongiorno Sassuolo Actif 156 / 149 40% 2 21.03.2027 -
Malick Thiaw West Ham United Actif 155 / 157 40% 1 17.03.2027 -
Daniel Muñoz Nottingham Forest Actif 150 / 144 40% 1 17.03.2027 -
Othmane Maamma Watford Actif 120 / 127 40% 2 16.03.2027 -
Marquinhos Spartak Moscow Actif 126 / 128 40% 1 13.03.2027 -
Giacomo Raspadori Atalanta Actif 145 / 151 40% 2 11.03.2027 -
Lewis Ferguson Bologna Actif 147 / 143 40% 1 11.03.2027 -
Georginio Rutter Brighton Actif 143 / 142 40% 3 08.03.2027 -
Tino Livramento Newcastle United Actif 160 / 159 40% 1 08.03.2027 -
Aaron Hickey Brentford Actif 140 / 152 40% 2 07.03.2027 -
Toby Collyer West Bromwich Albion Actif 129 / 126 40% 1 07.03.2027 -
Aidan Morris Middlesbrough Actif 126 / 131 40% 1 03.03.2027 -
Nathan Collins Brentford Actif 151 / 146 40% 3 02.03.2027 -
Christian Krasnodar Actif 140 / 119 40% 6 27.02.2027 -
Marcelo Allende Mamelodi Sundowns Actif 125 / 145 40% 1 25.02.2027 -
Takehiro Tomiyasu Crystal Palace Actif 140 / 136 40% 1 16.02.2027 -
Carlos Vicente Birmingham Actif 138 / 147 40% 1 11.02.2027 -
Mikkel Damsgaard Brentford Actif 143 / 155 40% 1 06.02.2027 -
Tyler Adams Bournemouth Actif 153 / 142 40% 1 05.02.2027 -
Zian Flemming Ipswich Town Actif 131 / 129 40% 1 04.02.2027 -
Mats Wieffer Brighton Actif 149 / 145 40% 4 31.12.2026 -
Jordan Beyer Burnley Actif 132 / 134 40% 1 29.12.2026 -
Ibrahim Sangaré Nottingham Forest Actif 145 / 138 40% 1 21.12.2026 -
Ainsley Maitland-Niles Everton Actif 140 / 148 40% 2 17.12.2026 -
Rico Lewis Manchester City Actif 154 / 156 40% 1 04.12.2026 -
Curtis Jones Inter Actif 152 / 157 40% 2 03.12.2026 -
Fikayo Tomori AC Milan Actif 155 / 143 40% 1 27.11.2026 -
Nadir Zortea Bologna Actif 137 / 131 40% 1 27.11.2026 -
Jon Gorenc Stankovič Sturm Graz Actif 136 / 120 40% 5 25.11.2026 -
Nuno Tavares Lazio Actif 147 / 141 40% 1 24.11.2026 -
Rubens Dinamo Moscow Actif 138 / 142 40% 1 24.11.2026 -
Fabián Paris Saint-Germain Actif 163 / 167 40% 1 24.11.2026 -
Dan-Axel Zagadou VfB Stuttgart Actif 136 / 125 40% 5 23.11.2026 -
Patrick Berg Bodo/Glimt Actif 147 / 135 40% 3 23.11.2026 -
Rogério VfL Wolfsburg Actif 131 / 124 40% 1 23.11.2026 -
Yves Bissouma Tottenham Actif 144 / 134 40% 1 20.11.2026 -
Lukáš Červ Viktoria Plzen Actif 141 / 124 40% 1 09.11.2026 -
Aníbal Moreno River Plate Actif 122 / 115 40% 1 09.11.2026 -
Emanuel Mammana Vélez Actif 132 / 130 40% 1 05.11.2026 -
Sergi Palencia Los Angeles Football Club Actif 125 / 122 40% 1 02.11.2026 -
Ayrton Costa Boca Juniors Actif 127 / 136 40% 1 31.10.2026 -
Dominik Schmid Red Bull Salzburg Actif 128 / 123 40% 1 31.10.2026 -
Sergio Reguilón Inter Miami CF Actif 127 / 141 40% 2 27.10.2026 -
Rodrigo Huescas FC Copenhagen Actif 133 / 122 40% 2 27.10.2026 -
Rúben Neves Al-Hilal Actif 149 / 145 40% 2 26.10.2026 -
Conrad Wallem Austria Wien Actif 132 / 139 40% 1 25.10.2026 -
Wendel Zenit Actif 147 / 135 40% 1 20.10.2026 -
Karel Spáčil Viktoria Plzen Actif 131 / 124 40% 1 20.10.2026 -
Miles Robinson FC Cincinnati Actif 132 / 128 40% 3 19.10.2026 -
David Brekalo Orlando City Actif 130 / 123 40% 3 15.10.2026 -
Bryan Ramírez FC Cincinnati Actif 122 / 145 40% 2 14.10.2026 -
Mattia Zanotti Lugano Actif 135 / 127 40% 2 14.10.2026 Plus d'infos
Marcel Hartel St. Louis CITY SC Actif 131 / 119 40% 2 13.10.2026 -
Dejan Radonjić SV Ried Actif 113 / 117 40% 1 06.10.2026 -
Fredrik Bjørkan Bodo/Glimt Actif 134 / 126 40% 1 06.10.2026 -
Roger Ibañez Al-Ahli Actif 148 / 148 40% 1 29.09.2026 -
Anton Salétros Chicago Fire Actif 128 / 115 40% 1 17.09.2026 -
Eduard Löwen San Jose Earthquakes Actif 140 / 148 40% 1 14.09.2026 -
Furkan Demir Rapid Wien Actif 120 / 123 40% 1 10.09.2026 -
Soumaïla Diabaté Red Bull Salzburg Actif 112 / 105 40% 1 10.09.2026 -
Philip Billing FC Midtjylland Actif 128 / 143 40% 1 08.09.2026 -